Soaring Guidance
Issued by NWS Reno, NV

Home | Current Version | Previous Version | Text Only | Print | Product List | Glossary On
Versions: 1 2 3 4 5 6 7 8 9 10 11 12 13 14
000
UXUS97 KREV 291347
SRGREV

SOARING FORECAST
NATIONAL WEATHER SERVICE - RENO NV
700 AM PDT SAT AUG 29 2015

THIS SOARING FORECAST IS FOR THE EASTERN SIERRA AND WESTERN NEVADA
WITH SPECIFIC INDICES FOR THE GREATER RENO AREA.

THIS FORECAST IS PREPARED DAILY BY 700 AM AND IS NOT UPDATED.

FOR CURRENT FLIGHT CONDITIONS...FORECASTS...AND ADVISORIES...ACCESS
YOUR LOCAL BRIEFING OUTLET OR FLIGHT SERVICE STATION.

*******************************************************************
FORECASTED LOCAL INDICES FOR RENO:        TODAY     YESTERDAY
FORECASTED MAX TEMP AT RENO (DEG F).....     83          93
FORECASTED TRIGGER TEMPERATURE (DEG F)..     74          80
   EXCEEDED YESTERDAY BY 1055 AM PDT
FORECASTED MAXIMUM ALTITUDE (FT MSL)....  12500       17400
FORECASTED SOARING INDEX (FPM)..........    645        1182
FORECASTED K-INDEX.........VALID 18Z....     17          12
FORECASTED K-INDEX.........VALID 00Z....     34          18
FORECASTED LIFTED INDEX....VALID 18Z....      8           6
FORECASTED LIFTED INDEX....VALID 00Z....      2           4

AFTERNOON WINDS ALOFT FORECAST
MSL (FT) WIND/TEMP
9000  2326/+10
10000 2131/+08
12000 2142/+05
14000 2143/+00
16000 2144/-04
18000 2145/-08
24000 2251/-21
30000 2268/-36
34000 2282/-44
39000 2290/-57

SLIDE MOUNTAIN DATA:
     DATE       TIME     TEMP  DEWPT   RH         WIND (MPH)
                        (F)   (F)           | DIR  SPEED GUST
2015-08-29    05:50      46    37     74    | 246   40   59
2015-08-29    05:30      46    37     73    | 245   38   54
2015-08-29    05:20      47    36     72    | 238   34   51
2015-08-29    05:00      47    37     72    | 244   35   56

RENO TAF FORECAST:
KRNO 291120Z 2912/3012 18014G26KT P6SM SCT140 BKN200
     FM291700 21025G35KT P6SM SCT080 BKN200
     FM300100 25015G25KT P6SM SCT080 SCT200
     FM300500 VRB04KT P6SM SKC

CARSON CITY TAF FORECAST:
KCXP 291120Z 2912/3012 22012G22KT P6SM BKN200
     FM291700 23022G34KT P6SM SCT070 BKN200
     FM292300 25012G25KT P6SM SCT060 SCT200
     FM300300 26011KT P6SM SKC

OUTLOOK FOR THE RENO-CARSON CITY-MINDEN AREA:
.SUNDAY...PARTLY CLOUDY IN THE MORNING THEN CLEARING. HIGHS 80 TO
85. LIGHT WINDS BECOMING WEST 10 TO 15 MPH IN THE AFTERNOON.

SUNRISE AND SUNSET
AUGUST 29 2015........SUNRISE   624 AM PDT   SUNSET   735 PM PDT
AUGUST 30 2015........SUNRISE   625 AM PDT   SUNSET   733 PM PDT


USA.gov is the U.S. government's official web portal to all federal, state and local government web resources and services.